sensor_id;sensor_type;location;lat;lon;timestamp;pressure;altitude;pressure_sealevel;temperature;humidity
69127;BME280;56688;50.234;19.292;2022-11-14T00:01:51;99684.56;;;5.88;85.66
69127;BME280;56688;50.234;19.292;2022-11-14T00:04:34;99680.73;;;5.87;85.53
69127;BME280;56688;50.234;19.292;2022-11-14T00:07:16;99672.95;;;5.85;85.29
69127;BME280;56688;50.234;19.292;2022-11-14T00:09:58;99664.82;;;5.83;85.58
69127;BME280;56688;50.234;19.292;2022-11-14T00:12:40;99663.44;;;5.82;85.11
69127;BME280;56688;50.234;19.292;2022-11-14T00:15:23;99664.66;;;5.80;85.49
69127;BME280;56688;50.234;19.292;2022-11-14T00:18:06;99658.49;;;5.82;85.61
69127;BME280;56688;50.234;19.292;2022-11-14T00:20:49;99661.87;;;5.82;85.64
69127;BME280;56688;50.234;19.292;2022-11-14T00:23:32;99661.13;;;5.82;85.51
69127;BME280;56688;50.234;19.292;2022-11-14T00:26:14;99669.49;;;5.82;85.98
69127;BME280;56688;50.234;19.292;2022-11-14T00:28:56;99676.76;;;5.84;85.79
69127;BME280;56688;50.234;19.292;2022-11-14T00:31:39;99674.70;;;5.85;85.64
69127;BME280;56688;50.234;19.292;2022-11-14T00:34:21;99678.99;;;5.84;85.53
69127;BME280;56688;50.234;19.292;2022-11-14T00:37:03;99678.80;;;5.87;85.51
69127;BME280;56688;50.234;19.292;2022-11-14T00:39:45;99671.80;;;5.88;85.83
69127;BME280;56688;50.234;19.292;2022-11-14T00:42:28;99682.60;;;5.93;85.72
69127;BME280;56688;50.234;19.292;2022-11-14T00:45:10;99681.88;;;5.91;85.23
69127;BME280;56688;50.234;19.292;2022-11-14T00:47:52;99679.57;;;5.91;85.37
69127;BME280;56688;50.234;19.292;2022-11-14T00:50:35;99679.05;;;5.93;85.35
69127;BME280;56688;50.234;19.292;2022-11-14T00:53:19;99674.13;;;5.97;85.45
69127;BME280;56688;50.234;19.292;2022-11-14T00:56:02;99679.18;;;6.01;85.54
69127;BME280;56688;50.234;19.292;2022-11-14T00:58:44;99676.39;;;6.03;85.25
69127;BME280;56688;50.234;19.292;2022-11-14T01:01:27;99675.28;;;6.04;84.78
69127;BME280;56688;50.234;19.292;2022-11-14T01:04:09;99673.02;;;6.03;84.84
69127;BME280;56688;50.234;19.292;2022-11-14T01:06:51;99669.85;;;5.99;84.71
69127;BME280;56688;50.234;19.292;2022-11-14T01:09:34;99671.09;;;5.93;84.30
69127;BME280;56688;50.234;19.292;2022-11-14T01:12:16;99669.05;;;5.89;84.45
69127;BME280;56688;50.234;19.292;2022-11-14T01:14:58;99660.54;;;5.85;84.54
69127;BME280;56688;50.234;19.292;2022-11-14T01:17:40;99652.76;;;5.83;84.53
69127;BME280;56688;50.234;19.292;2022-11-14T01:20:23;99651.13;;;5.82;84.68
69127;BME280;56688;50.234;19.292;2022-11-14T01:23:07;99646.48;;;5.78;84.73
69127;BME280;56688;50.234;19.292;2022-11-14T01:25:49;99640.67;;;5.74;84.66
69127;BME280;56688;50.234;19.292;2022-11-14T01:28:32;99633.51;;;5.71;84.61
69127;BME280;56688;50.234;19.292;2022-11-14T01:31:18;99635.98;;;5.69;84.77
69127;BME280;56688;50.234;19.292;2022-11-14T01:34:00;99632.02;;;5.69;85.51
69127;BME280;56688;50.234;19.292;2022-11-14T01:36:43;99629.61;;;5.69;85.28
69127;BME280;56688;50.234;19.292;2022-11-14T01:39:26;99625.13;;;5.70;85.31
69127;BME280;56688;50.234;19.292;2022-11-14T01:42:08;99619.34;;;5.65;85.18
69127;BME280;56688;50.234;19.292;2022-11-14T01:44:51;99620.86;;;5.62;85.46
69127;BME280;56688;50.234;19.292;2022-11-14T01:47:34;99614.94;;;5.58;84.80
69127;BME280;56688;50.234;19.292;2022-11-14T01:50:16;99615.14;;;5.54;85.17
69127;BME280;56688;50.234;19.292;2022-11-14T01:52:58;99607.27;;;5.46;85.18
69127;BME280;56688;50.234;19.292;2022-11-14T01:55:41;99607.70;;;5.41;85.37
69127;BME280;56688;50.234;19.292;2022-11-14T01:58:24;99609.83;;;5.39;85.32
69127;BME280;56688;50.234;19.292;2022-11-14T02:01:09;99609.77;;;5.38;85.54
69127;BME280;56688;50.234;19.292;2022-11-14T02:03:53;99613.16;;;5.35;85.75
69127;BME280;56688;50.234;19.292;2022-11-14T02:06:37;99611.81;;;5.36;85.84
69127;BME280;56688;50.234;19.292;2022-11-14T02:09:20;99604.58;;;5.39;86.06
69127;BME280;56688;50.234;19.292;2022-11-14T02:12:06;99599.54;;;5.42;86.44
69127;BME280;56688;50.234;19.292;2022-11-14T02:14:51;99604.76;;;5.42;85.94
69127;BME280;56688;50.234;19.292;2022-11-14T02:17:36;99601.67;;;5.41;86.20
69127;BME280;56688;50.234;19.292;2022-11-14T02:20:21;99602.18;;;5.44;86.08
69127;BME280;56688;50.234;19.292;2022-11-14T02:23:03;99602.42;;;5.47;86.20
69127;BME280;56688;50.234;19.292;2022-11-14T02:25:46;99602.31;;;5.55;85.88
69127;BME280;56688;50.234;19.292;2022-11-14T02:28:29;99606.09;;;5.60;86.17
69127;BME280;56688;50.234;19.292;2022-11-14T02:31:12;99603.73;;;5.64;85.87
69127;BME280;56688;50.234;19.292;2022-11-14T02:33:55;99602.21;;;5.61;85.28
69127;BME280;56688;50.234;19.292;2022-11-14T02:36:37;99591.60;;;5.56;85.02
69127;BME280;56688;50.234;19.292;2022-11-14T02:39:19;99592.59;;;5.53;85.05
69127;BME280;56688;50.234;19.292;2022-11-14T02:42:01;99589.48;;;5.54;85.30
69127;BME280;56688;50.234;19.292;2022-11-14T02:44:43;99588.11;;;5.57;85.42
69127;BME280;56688;50.234;19.292;2022-11-14T02:47:26;99587.43;;;5.59;85.33
69127;BME280;56688;50.234;19.292;2022-11-14T02:50:09;99583.15;;;5.57;85.25
69127;BME280;56688;50.234;19.292;2022-11-14T02:52:51;99578.52;;;5.56;85.02
69127;BME280;56688;50.234;19.292;2022-11-14T02:55:35;99573.97;;;5.55;84.92
69127;BME280;56688;50.234;19.292;2022-11-14T02:58:17;99576.50;;;5.55;84.76
69127;BME280;56688;50.234;19.292;2022-11-14T03:00:59;99578.14;;;5.58;85.27
69127;BME280;56688;50.234;19.292;2022-11-14T03:04:01;99569.64;;;5.59;84.82
69127;BME280;56688;50.234;19.292;2022-11-14T03:06:43;99565.27;;;5.56;84.47
69127;BME280;56688;50.234;19.292;2022-11-14T03:09:26;99565.02;;;5.51;84.42
69127;BME280;56688;50.234;19.292;2022-11-14T03:12:08;99564.52;;;5.46;84.85
69127;BME280;56688;50.234;19.292;2022-11-14T03:14:51;99567.73;;;5.44;84.71
69127;BME280;56688;50.234;19.292;2022-11-14T03:17:33;99563.23;;;5.43;84.62
69127;BME280;56688;50.234;19.292;2022-11-14T03:20:16;99564.48;;;5.42;84.57
69127;BME280;56688;50.234;19.292;2022-11-14T03:22:59;99570.48;;;5.42;84.67
69127;BME280;56688;50.234;19.292;2022-11-14T03:25:41;99565.80;;;5.40;84.70
69127;BME280;56688;50.234;19.292;2022-11-14T03:28:23;99566.82;;;5.36;85.00
69127;BME280;56688;50.234;19.292;2022-11-14T03:31:06;99566.08;;;5.34;84.83
69127;BME280;56688;50.234;19.292;2022-11-14T03:33:49;99567.61;;;5.33;84.92
69127;BME280;56688;50.234;19.292;2022-11-14T03:36:33;99567.36;;;5.34;84.60
69127;BME280;56688;50.234;19.292;2022-11-14T03:39:15;99567.20;;;5.31;84.59
69127;BME280;56688;50.234;19.292;2022-11-14T03:41:57;99569.12;;;5.32;84.85
69127;BME280;56688;50.234;19.292;2022-11-14T03:44:40;99565.49;;;5.28;84.53
69127;BME280;56688;50.234;19.292;2022-11-14T03:47:23;99567.11;;;5.24;84.72
69127;BME280;56688;50.234;19.292;2022-11-14T03:50:05;99561.48;;;5.19;84.66
69127;BME280;56688;50.234;19.292;2022-11-14T03:52:48;99557.45;;;5.15;84.63
69127;BME280;56688;50.234;19.292;2022-11-14T03:55:31;99552.77;;;5.14;85.14
69127;BME280;56688;50.234;19.292;2022-11-14T03:58:14;99560.52;;;5.14;84.94
69127;BME280;56688;50.234;19.292;2022-11-14T04:00:56;99561.11;;;5.16;85.59
69127;BME280;56688;50.234;19.292;2022-11-14T04:03:38;99554.01;;;5.16;85.28
69127;BME280;56688;50.234;19.292;2022-11-14T04:06:21;99553.27;;;5.20;85.42
69127;BME280;56688;50.234;19.292;2022-11-14T04:09:03;99556.14;;;5.22;85.07
69127;BME280;56688;50.234;19.292;2022-11-14T04:11:45;99554.80;;;5.23;85.10
69127;BME280;56688;50.234;19.292;2022-11-14T04:14:28;99552.02;;;5.25;85.16
69127;BME280;56688;50.234;19.292;2022-11-14T04:17:10;99548.06;;;5.25;85.37
69127;BME280;56688;50.234;19.292;2022-11-14T04:19:52;99539.36;;;5.24;85.45
69127;BME280;56688;50.234;19.292;2022-11-14T04:22:34;99537.19;;;5.25;85.33
69127;BME280;56688;50.234;19.292;2022-11-14T04:25:17;99537.49;;;5.25;84.96
69127;BME280;56688;50.234;19.292;2022-11-14T04:27:59;99546.02;;;5.29;85.24
69127;BME280;56688;50.234;19.292;2022-11-14T04:30:42;99545.81;;;5.27;85.20
69127;BME280;56688;50.234;19.292;2022-11-14T04:33:26;99542.86;;;5.22;85.24
69127;BME280;56688;50.234;19.292;2022-11-14T04:36:09;99543.10;;;5.24;85.35
69127;BME280;56688;50.234;19.292;2022-11-14T04:38:51;99543.52;;;5.23;84.98
69127;BME280;56688;50.234;19.292;2022-11-14T04:41:33;99543.64;;;5.19;84.86
69127;BME280;56688;50.234;19.292;2022-11-14T04:44:15;99548.92;;;5.17;84.87
69127;BME280;56688;50.234;19.292;2022-11-14T04:46:58;99547.96;;;5.17;84.96
69127;BME280;56688;50.234;19.292;2022-11-14T04:49:40;99548.50;;;5.14;85.06
69127;BME280;56688;50.234;19.292;2022-11-14T04:52:22;99544.95;;;5.10;85.01
69127;BME280;56688;50.234;19.292;2022-11-14T04:55:05;99539.06;;;5.07;84.83
69127;BME280;56688;50.234;19.292;2022-11-14T04:57:52;99534.77;;;5.05;85.31
69127;BME280;56688;50.234;19.292;2022-11-14T05:00:36;99531.48;;;5.05;85.29
69127;BME280;56688;50.234;19.292;2022-11-14T05:03:18;99529.52;;;5.05;85.37
69127;BME280;56688;50.234;19.292;2022-11-14T05:06:01;99525.29;;;5.05;85.74
69127;BME280;56688;50.234;19.292;2022-11-14T05:08:43;99522.98;;;5.02;85.40
69127;BME280;56688;50.234;19.292;2022-11-14T05:11:26;99523.38;;;4.98;85.52
69127;BME280;56688;50.234;19.292;2022-11-14T05:14:10;99523.14;;;4.98;85.63
69127;BME280;56688;50.234;19.292;2022-11-14T05:16:52;99521.20;;;5.00;85.92
69127;BME280;56688;50.234;19.292;2022-11-14T05:19:35;99517.48;;;5.05;85.86
69127;BME280;56688;50.234;19.292;2022-11-14T05:22:17;99517.75;;;5.10;85.95
69127;BME280;56688;50.234;19.292;2022-11-14T05:24:59;99520.70;;;5.15;85.68
69127;BME280;56688;50.234;19.292;2022-11-14T05:27:42;99528.86;;;5.12;85.58
69127;BME280;56688;50.234;19.292;2022-11-14T05:30:24;99530.85;;;5.08;85.55
69127;BME280;56688;50.234;19.292;2022-11-14T05:33:06;99528.05;;;5.05;85.47
69127;BME280;56688;50.234;19.292;2022-11-14T05:35:49;99530.83;;;5.06;85.60
69127;BME280;56688;50.234;19.292;2022-11-14T05:38:32;99535.02;;;5.07;85.69
69127;BME280;56688;50.234;19.292;2022-11-14T05:41:16;99526.31;;;5.08;85.61
69127;BME280;56688;50.234;19.292;2022-11-14T05:44:03;99524.13;;;5.08;85.83
69127;BME280;56688;50.234;19.292;2022-11-14T05:46:45;99523.41;;;5.08;85.61
69127;BME280;56688;50.234;19.292;2022-11-14T05:49:28;99525.73;;;5.08;85.72
69127;BME280;56688;50.234;19.292;2022-11-14T05:52:10;99522.96;;;5.07;85.69
69127;BME280;56688;50.234;19.292;2022-11-14T05:54:52;99527.35;;;5.05;85.52
69127;BME280;56688;50.234;19.292;2022-11-14T05:57:35;99528.25;;;5.05;85.38
69127;BME280;56688;50.234;19.292;2022-11-14T06:00:17;99527.96;;;5.04;85.82
69127;BME280;56688;50.234;19.292;2022-11-14T06:02:59;99527.63;;;5.00;85.80
69127;BME280;56688;50.234;19.292;2022-11-14T06:05:41;99526.06;;;4.97;85.96
69127;BME280;56688;50.234;19.292;2022-11-14T06:08:24;99524.59;;;4.98;86.07
69127;BME280;56688;50.234;19.292;2022-11-14T06:11:08;99518.21;;;4.98;85.93
69127;BME280;56688;50.234;19.292;2022-11-14T06:13:51;99517.67;;;5.03;86.52
69127;BME280;56688;50.234;19.292;2022-11-14T06:16:33;99517.23;;;5.08;86.07
69127;BME280;56688;50.234;19.292;2022-11-14T06:19:15;99518.04;;;5.09;86.03
69127;BME280;56688;50.234;19.292;2022-11-14T06:21:58;99520.96;;;5.06;85.79
69127;BME280;56688;50.234;19.292;2022-11-14T06:24:40;99524.98;;;5.04;85.74
69127;BME280;56688;50.234;19.292;2022-11-14T06:27:22;99527.76;;;5.00;85.72
69127;BME280;56688;50.234;19.292;2022-11-14T06:30:05;99533.45;;;5.02;85.96
69127;BME280;56688;50.234;19.292;2022-11-14T06:32:47;99535.41;;;5.06;86.38
69127;BME280;56688;50.234;19.292;2022-11-14T06:35:30;99542.58;;;5.09;86.24
69127;BME280;56688;50.234;19.292;2022-11-14T06:38:14;99542.92;;;5.07;85.77
69127;BME280;56688;50.234;19.292;2022-11-14T06:41:05;99541.66;;;5.10;85.89
69127;BME280;56688;50.234;19.292;2022-11-14T06:43:49;99542.11;;;5.13;86.03
69127;BME280;56688;50.234;19.292;2022-11-14T06:46:32;99540.89;;;5.16;86.29
69127;BME280;56688;50.234;19.292;2022-11-14T06:49:14;99544.76;;;5.21;85.70
69127;BME280;56688;50.234;19.292;2022-11-14T06:51:56;99540.69;;;5.23;85.85
69127;BME280;56688;50.234;19.292;2022-11-14T06:54:38;99534.17;;;5.25;86.01
69127;BME280;56688;50.234;19.292;2022-11-14T06:57:20;99531.13;;;5.25;85.73
69127;BME280;56688;50.234;19.292;2022-11-14T07:00:03;99530.11;;;5.25;85.75
69127;BME280;56688;50.234;19.292;2022-11-14T07:02:47;99529.02;;;5.27;85.72
69127;BME280;56688;50.234;19.292;2022-11-14T07:05:30;99522.67;;;5.32;85.37
69127;BME280;56688;50.234;19.292;2022-11-14T07:08:12;99521.62;;;5.32;85.15
69127;BME280;56688;50.234;19.292;2022-11-14T07:11:11;99529.73;;;5.36;85.41
69127;BME280;56688;50.234;19.292;2022-11-14T07:13:55;99535.09;;;5.37;85.59
69127;BME280;56688;50.234;19.292;2022-11-14T07:16:39;99533.23;;;5.40;85.51
69127;BME280;56688;50.234;19.292;2022-11-14T07:19:21;99531.11;;;5.47;85.73
69127;BME280;56688;50.234;19.292;2022-11-14T07:22:03;99534.14;;;5.52;85.65
69127;BME280;56688;50.234;19.292;2022-11-14T07:24:46;99538.98;;;5.56;85.11
69127;BME280;56688;50.234;19.292;2022-11-14T07:27:28;99541.10;;;5.57;85.46
69127;BME280;56688;50.234;19.292;2022-11-14T07:30:10;99545.40;;;5.62;84.91
69127;BME280;56688;50.234;19.292;2022-11-14T07:32:57;99544.35;;;5.63;84.76
69127;BME280;56688;50.234;19.292;2022-11-14T07:35:39;99535.66;;;5.64;84.54
69127;BME280;56688;50.234;19.292;2022-11-14T07:38:21;99530.62;;;5.65;84.79
69127;BME280;56688;50.234;19.292;2022-11-14T07:41:06;99527.30;;;5.68;84.74
69127;BME280;56688;50.234;19.292;2022-11-14T07:43:49;99525.51;;;5.75;84.33
69127;BME280;56688;50.234;19.292;2022-11-14T07:46:31;99519.18;;;5.72;84.16
69127;BME280;56688;50.234;19.292;2022-11-14T07:49:13;99513.18;;;5.70;83.84
69127;BME280;56688;50.234;19.292;2022-11-14T07:51:56;99509.49;;;5.70;83.87
69127;BME280;56688;50.234;19.292;2022-11-14T07:54:38;99509.55;;;5.71;83.89
69127;BME280;56688;50.234;19.292;2022-11-14T07:57:21;99506.64;;;5.76;83.87
69127;BME280;56688;50.234;19.292;2022-11-14T08:00:03;99505.55;;;5.82;84.29
69127;BME280;56688;50.234;19.292;2022-11-14T08:02:46;99506.61;;;5.89;84.56
69127;BME280;56688;50.234;19.292;2022-11-14T08:05:28;99508.00;;;5.95;84.25
69127;BME280;56688;50.234;19.292;2022-11-14T08:08:10;99509.71;;;5.98;84.08
69127;BME280;56688;50.234;19.292;2022-11-14T08:10:56;99507.77;;;6.00;83.99
69127;BME280;56688;50.234;19.292;2022-11-14T08:13:38;99501.45;;;6.05;84.16
69127;BME280;56688;50.234;19.292;2022-11-14T08:16:21;99492.84;;;6.15;84.36
69127;BME280;56688;50.234;19.292;2022-11-14T08:19:03;99493.61;;;6.20;83.90
69127;BME280;56688;50.234;19.292;2022-11-14T08:21:45;99483.34;;;6.20;83.59
69127;BME280;56688;50.234;19.292;2022-11-14T08:24:28;99482.61;;;6.22;83.65
69127;BME280;56688;50.234;19.292;2022-11-14T08:27:10;99479.80;;;6.28;83.47
69127;BME280;56688;50.234;19.292;2022-11-14T08:29:52;99476.77;;;6.38;83.56
69127;BME280;56688;50.234;19.292;2022-11-14T08:32:35;99476.51;;;6.47;83.30
69127;BME280;56688;50.234;19.292;2022-11-14T08:35:17;99467.48;;;6.56;83.61
69127;BME280;56688;50.234;19.292;2022-11-14T08:38:00;99472.57;;;6.65;83.05
69127;BME280;56688;50.234;19.292;2022-11-14T08:40:43;99471.41;;;6.66;82.18
69127;BME280;56688;50.234;19.292;2022-11-14T08:43:26;99472.63;;;6.64;81.56
69127;BME280;56688;50.234;19.292;2022-11-14T08:46:08;99469.44;;;6.64;81.58
69127;BME280;56688;50.234;19.292;2022-11-14T08:48:50;99475.73;;;6.71;82.26
69127;BME280;56688;50.234;19.292;2022-11-14T08:51:33;99469.48;;;6.78;82.11
69127;BME280;56688;50.234;19.292;2022-11-14T08:54:18;99465.45;;;6.79;81.75
69127;BME280;56688;50.234;19.292;2022-11-14T08:57:00;99471.59;;;6.76;81.66
69127;BME280;56688;50.234;19.292;2022-11-14T08:59:42;99478.52;;;6.79;81.37
69127;BME280;56688;50.234;19.292;2022-11-14T09:02:24;99474.42;;;6.81;81.42
69127;BME280;56688;50.234;19.292;2022-11-14T09:05:07;99482.79;;;6.73;81.35
69127;BME280;56688;50.234;19.292;2022-11-14T09:07:50;99476.88;;;6.70;81.91
69127;BME280;56688;50.234;19.292;2022-11-14T09:10:33;99475.48;;;6.78;81.81
69127;BME280;56688;50.234;19.292;2022-11-14T09:13:15;99478.16;;;6.85;82.01
69127;BME280;56688;50.234;19.292;2022-11-14T09:15:58;99472.76;;;6.88;81.39
69127;BME280;56688;50.234;19.292;2022-11-14T09:18:40;99470.89;;;6.91;81.05
69127;BME280;56688;50.234;19.292;2022-11-14T09:21:22;99472.46;;;6.91;80.50
69127;BME280;56688;50.234;19.292;2022-11-14T09:24:05;99465.85;;;6.95;81.24
69127;BME280;56688;50.234;19.292;2022-11-14T09:26:50;99463.59;;;7.01;81.06
69127;BME280;56688;50.234;19.292;2022-11-14T09:29:38;99460.33;;;7.06;80.80
69127;BME280;56688;50.234;19.292;2022-11-14T09:32:20;99455.26;;;7.14;81.01
69127;BME280;56688;50.234;19.292;2022-11-14T09:35:03;99457.66;;;7.11;80.65
69127;BME280;56688;50.234;19.292;2022-11-14T09:37:45;99458.13;;;7.14;80.78
69127;BME280;56688;50.234;19.292;2022-11-14T09:40:27;99461.95;;;7.22;81.10
69127;BME280;56688;50.234;19.292;2022-11-14T09:46:15;99453.77;;;7.39;80.81
69127;BME280;56688;50.234;19.292;2022-11-14T09:48:58;99443.70;;;7.48;80.72
69127;BME280;56688;50.234;19.292;2022-11-14T09:51:49;99436.54;;;7.53;79.80
69127;BME280;56688;50.234;19.292;2022-11-14T09:54:51;99434.14;;;7.56;79.18
69127;BME280;56688;50.234;19.292;2022-11-14T09:57:34;99429.65;;;7.56;79.21
69127;BME280;56688;50.234;19.292;2022-11-14T10:00:19;99428.73;;;7.61;79.21
69127;BME280;56688;50.234;19.292;2022-11-14T10:03:14;99425.95;;;7.60;79.11
69127;BME280;56688;50.234;19.292;2022-11-14T10:06:06;99425.98;;;7.65;79.22
69127;BME280;56688;50.234;19.292;2022-11-14T10:12:20;99416.27;;;7.70;78.36
69127;BME280;56688;50.234;19.292;2022-11-14T10:15:12;99411.10;;;7.69;78.22
69127;BME280;56688;50.234;19.292;2022-11-14T10:18:23;99405.14;;;7.73;78.84
69127;BME280;56688;50.234;19.292;2022-11-14T10:27:02;99392.35;;;7.83;78.93
69127;BME280;56688;50.234;19.292;2022-11-14T10:29:56;99388.27;;;7.88;78.40
69127;BME280;56688;50.234;19.292;2022-11-14T10:35:43;99388.10;;;8.02;79.15
69127;BME280;56688;50.234;19.292;2022-11-14T10:38:35;99382.06;;;8.17;78.82
69127;BME280;56688;50.234;19.292;2022-11-14T10:41:21;99378.36;;;8.33;78.33
69127;BME280;56688;50.234;19.292;2022-11-14T10:44:30;99379.36;;;8.45;77.60
69127;BME280;56688;50.234;19.292;2022-11-14T10:47:17;99374.31;;;8.43;77.27
69127;BME280;56688;50.234;19.292;2022-11-14T10:52:59;99371.30;;;8.40;76.94
69127;BME280;56688;50.234;19.292;2022-11-14T10:55:45;99366.52;;;8.43;76.60
69127;BME280;56688;50.234;19.292;2022-11-14T10:58:45;99364.58;;;8.49;76.58
69127;BME280;56688;50.234;19.292;2022-11-14T11:04:32;99358.11;;;8.60;75.68
69127;BME280;56688;50.234;19.292;2022-11-14T11:07:21;99352.48;;;8.57;75.41
69127;BME280;56688;50.234;19.292;2022-11-14T11:10:22;99343.95;;;8.54;75.73
69127;BME280;56688;50.234;19.292;2022-11-14T11:13:31;99339.89;;;8.59;76.18
69127;BME280;56688;50.234;19.292;2022-11-14T11:16:18;99341.86;;;8.66;76.14
69127;BME280;56688;50.234;19.292;2022-11-14T11:19:22;99333.03;;;8.72;76.15
69127;BME280;56688;50.234;19.292;2022-11-14T11:22:25;99335.88;;;8.71;75.65
69127;BME280;56688;50.234;19.292;2022-11-14T11:25:25;99323.97;;;8.58;75.60
69127;BME280;56688;50.234;19.292;2022-11-14T11:28:17;99316.36;;;8.48;76.22
69127;BME280;56688;50.234;19.292;2022-11-14T11:31:04;99313.98;;;8.64;76.84
69127;BME280;56688;50.234;19.292;2022-11-14T11:33:47;99310.46;;;8.97;76.44
69127;BME280;56688;50.234;19.292;2022-11-14T11:36:37;99313.48;;;9.27;75.58
69127;BME280;56688;50.234;19.292;2022-11-14T11:39:26;99307.16;;;9.50;74.39
69127;BME280;56688;50.234;19.292;2022-11-14T11:42:17;99302.34;;;9.68;73.37
69127;BME280;56688;50.234;19.292;2022-11-14T11:45:03;99301.87;;;9.91;72.82
69127;BME280;56688;50.234;19.292;2022-11-14T11:47:56;99291.73;;;10.18;72.12
69127;BME280;56688;50.234;19.292;2022-11-14T11:50:40;99285.64;;;10.56;70.91
69127;BME280;56688;50.234;19.292;2022-11-14T11:53:23;99282.21;;;11.04;69.41
69127;BME280;56688;50.234;19.292;2022-11-14T11:56:13;99276.20;;;11.63;67.14
69127;BME280;56688;50.234;19.292;2022-11-14T11:59:18;99270.50;;;12.24;65.24
69127;BME280;56688;50.234;19.292;2022-11-14T12:02:19;99270.27;;;12.81;62.99
69127;BME280;56688;50.234;19.292;2022-11-14T12:05:03;99266.41;;;13.42;61.40
69127;BME280;56688;50.234;19.292;2022-11-14T12:07:56;99261.69;;;13.96;59.49
69127;BME280;56688;50.234;19.292;2022-11-14T12:10:40;99255.83;;;14.41;57.41
69127;BME280;56688;50.234;19.292;2022-11-14T12:19:39;99238.46;;;15.26;54.62
69127;BME280;56688;50.234;19.292;2022-11-14T12:31:40;99226.83;;;16.50;50.91
69127;BME280;56688;50.234;19.292;2022-11-14T12:34:26;99223.72;;;16.57;50.25
69127;BME280;56688;50.234;19.292;2022-11-14T12:37:17;99223.21;;;16.56;49.69
69127;BME280;56688;50.234;19.292;2022-11-14T12:40:12;99223.42;;;16.13;50.41
69127;BME280;56688;50.234;19.292;2022-11-14T12:43:01;99215.81;;;15.91;50.92
69127;BME280;56688;50.234;19.292;2022-11-14T12:54:40;99210.65;;;16.15;50.35
69127;BME280;56688;50.234;19.292;2022-11-14T12:57:29;99207.71;;;16.21;49.98
69127;BME280;56688;50.234;19.292;2022-11-14T13:00:34;99208.41;;;16.19;50.19
69127;BME280;56688;50.234;19.292;2022-11-14T13:06:10;99210.58;;;15.83;50.23
69127;BME280;56688;50.234;19.292;2022-11-14T13:09:10;99207.84;;;15.49;51.24
69127;BME280;56688;50.234;19.292;2022-11-14T13:11:56;99200.75;;;15.57;51.12
69127;BME280;56688;50.234;19.292;2022-11-14T13:14:55;99196.10;;;15.63;50.59
69127;BME280;56688;50.234;19.292;2022-11-14T13:18:03;99199.02;;;15.48;50.72
69127;BME280;56688;50.234;19.292;2022-11-14T13:21:19;99196.92;;;15.27;51.20
69127;BME280;56688;50.234;19.292;2022-11-14T13:24:25;99197.34;;;15.11;51.39
69127;BME280;56688;50.234;19.292;2022-11-14T13:33:45;99190.69;;;14.32;53.30
69127;BME280;56688;50.234;19.292;2022-11-14T13:36:33;99186.61;;;14.29;53.51
69127;BME280;56688;50.234;19.292;2022-11-14T13:39:36;99187.92;;;14.18;53.77
69127;BME280;56688;50.234;19.292;2022-11-14T13:42:30;99186.02;;;13.98;54.24
69127;BME280;56688;50.234;19.292;2022-11-14T13:51:11;99190.95;;;13.14;55.95
69127;BME280;56688;50.234;19.292;2022-11-14T13:54:16;99189.51;;;12.56;57.25
69127;BME280;56688;50.234;19.292;2022-11-14T14:00:16;99189.16;;;11.16;60.86
69127;BME280;56688;50.234;19.292;2022-11-14T14:09:07;99186.72;;;9.69;65.73
69127;BME280;56688;50.234;19.292;2022-11-14T14:12:14;99195.34;;;9.26;67.35
69127;BME280;56688;50.234;19.292;2022-11-14T14:17:59;99194.42;;;8.61;69.82
69127;BME280;56688;50.234;19.292;2022-11-14T14:20:52;99189.91;;;8.39;70.92
69127;BME280;56688;50.234;19.292;2022-11-14T14:29:24;99178.61;;;7.79;73.26
69127;BME280;56688;50.234;19.292;2022-11-14T14:32:12;99178.79;;;7.56;74.15
69127;BME280;56688;50.234;19.292;2022-11-14T14:34:55;99177.34;;;7.37;75.20
69127;BME280;56688;50.234;19.292;2022-11-14T14:37:49;99179.80;;;7.15;75.97
69127;BME280;56688;50.234;19.292;2022-11-14T14:40:34;99176.09;;;6.97;76.81
69127;BME280;56688;50.234;19.292;2022-11-14T14:43:24;99177.52;;;6.83;77.41
69127;BME280;56688;50.234;19.292;2022-11-14T14:46:09;99174.06;;;6.73;77.81
69127;BME280;56688;50.234;19.292;2022-11-14T14:48:52;99171.30;;;6.64;78.32
69127;BME280;56688;50.234;19.292;2022-11-14T14:51:35;99167.58;;;6.53;78.86
69127;BME280;56688;50.234;19.292;2022-11-14T14:54:21;99168.24;;;6.43;79.32
69127;BME280;56688;50.234;19.292;2022-11-14T14:57:16;99163.85;;;6.35;79.95
69127;BME280;56688;50.234;19.292;2022-11-14T15:00:14;99164.49;;;6.28;80.50
69127;BME280;56688;50.234;19.292;2022-11-14T15:02:57;99165.74;;;6.23;80.86
69127;BME280;56688;50.234;19.292;2022-11-14T15:05:40;99166.48;;;6.19;81.50
69127;BME280;56688;50.234;19.292;2022-11-14T15:08:22;99167.47;;;6.12;81.59
69127;BME280;56688;50.234;19.292;2022-11-14T15:11:05;99165.95;;;6.05;82.22
69127;BME280;56688;50.234;19.292;2022-11-14T15:13:54;99167.22;;;6.01;82.54
69127;BME280;56688;50.234;19.292;2022-11-14T15:16:37;99162.39;;;5.96;83.05
69127;BME280;56688;50.234;19.292;2022-11-14T15:19:23;99160.50;;;5.96;83.33
69127;BME280;56688;50.234;19.292;2022-11-14T15:27:53;99164.60;;;5.93;83.81
69127;BME280;56688;50.234;19.292;2022-11-14T15:30:36;99162.11;;;5.92;83.99
69127;BME280;56688;50.234;19.292;2022-11-14T15:33:26;99159.68;;;5.91;84.28
69127;BME280;56688;50.234;19.292;2022-11-14T15:36:12;99160.31;;;5.88;84.24
69127;BME280;56688;50.234;19.292;2022-11-14T15:38:59;99158.50;;;5.86;84.22
69127;BME280;56688;50.234;19.292;2022-11-14T15:41:42;99154.64;;;5.88;84.69
69127;BME280;56688;50.234;19.292;2022-11-14T15:44:33;99154.45;;;5.88;84.34
69127;BME280;56688;50.234;19.292;2022-11-14T15:47:19;99150.66;;;5.83;84.28
69127;BME280;56688;50.234;19.292;2022-11-14T15:53:20;99158.52;;;5.75;84.34
69127;BME280;56688;50.234;19.292;2022-11-14T15:56:04;99158.86;;;5.71;84.21
69127;BME280;56688;50.234;19.292;2022-11-14T15:58:46;99160.54;;;5.70;84.77
69127;BME280;56688;50.234;19.292;2022-11-14T16:01:30;99165.06;;;5.71;84.92
69127;BME280;56688;50.234;19.292;2022-11-14T16:04:16;99158.08;;;5.72;85.13